sensor_id;sensor_type;location;lat;lon;timestamp;P1;durP1;ratioP1;P2;durP2;ratioP2
50781;SDS011;36749;37.428;-121.972;2023-05-10T00:01:35;5.07;;;1.55;;
50781;SDS011;36749;37.428;-121.972;2023-05-10T00:04:01;2.28;;;0.90;;
50781;SDS011;36749;37.428;-121.972;2023-05-10T00:06:27;9.15;;;1.55;;
50781;SDS011;36749;37.428;-121.972;2023-05-10T00:08:53;7.55;;;1.35;;
50781;SDS011;36749;37.428;-121.972;2023-05-10T00:11:19;22.17;;;2.10;;
50781;SDS011;36749;37.428;-121.972;2023-05-10T00:13:46;5.57;;;1.25;;
50781;SDS011;36749;37.428;-121.972;2023-05-10T00:16:12;2.78;;;0.90;;
50781;SDS011;36749;37.428;-121.972;2023-05-10T00:18:39;7.22;;;1.90;;
50781;SDS011;36749;37.428;-121.972;2023-05-10T00:21:05;9.65;;;1.52;;
50781;SDS011;36749;37.428;-121.972;2023-05-10T00:23:31;3.28;;;1.13;;
50781;SDS011;36749;37.428;-121.972;2023-05-10T00:26:16;11.20;;;1.88;;
50781;SDS011;36749;37.428;-121.972;2023-05-10T00:28:42;4.00;;;1.23;;
50781;SDS011;36749;37.428;-121.972;2023-05-10T00:31:08;4.35;;;1.83;;
50781;SDS011;36749;37.428;-121.972;2023-05-10T00:33:34;4.13;;;1.27;;
50781;SDS011;36749;37.428;-121.972;2023-05-10T00:36:00;5.68;;;1.75;;
50781;SDS011;36749;37.428;-121.972;2023-05-10T00:38:27;5.57;;;1.15;;
50781;SDS011;36749;37.428;-121.972;2023-05-10T00:40:53;1.98;;;1.20;;
50781;SDS011;36749;37.428;-121.972;2023-05-10T00:43:19;7.15;;;1.23;;
50781;SDS011;36749;37.428;-121.972;2023-05-10T00:45:45;4.80;;;1.33;;
50781;SDS011;36749;37.428;-121.972;2023-05-10T00:48:12;14.57;;;2.20;;
50781;SDS011;36749;37.428;-121.972;2023-05-10T00:50:38;8.68;;;1.52;;
50781;SDS011;36749;37.428;-121.972;2023-05-10T00:53:05;3.55;;;1.10;;
50781;SDS011;36749;37.428;-121.972;2023-05-10T00:55:31;3.88;;;1.23;;
50781;SDS011;36749;37.428;-121.972;2023-05-10T00:57:57;6.72;;;1.30;;
50781;SDS011;36749;37.428;-121.972;2023-05-10T01:00:24;4.88;;;1.60;;
50781;SDS011;36749;37.428;-121.972;2023-05-10T01:02:50;10.77;;;1.73;;
50781;SDS011;36749;37.428;-121.972;2023-05-10T01:05:18;4.93;;;1.30;;
50781;SDS011;36749;37.428;-121.972;2023-05-10T01:07:45;7.80;;;1.35;;
50781;SDS011;36749;37.428;-121.972;2023-05-10T01:10:11;5.07;;;1.98;;
50781;SDS011;36749;37.428;-121.972;2023-05-10T01:12:38;4.25;;;1.30;;
50781;SDS011;36749;37.428;-121.972;2023-05-10T01:15:05;5.47;;;1.42;;
50781;SDS011;36749;37.428;-121.972;2023-05-10T01:17:32;9.73;;;1.85;;
50781;SDS011;36749;37.428;-121.972;2023-05-10T01:19:59;22.60;;;2.92;;
50781;SDS011;36749;37.428;-121.972;2023-05-10T01:31:08;3.95;;;1.38;;
50781;SDS011;36749;37.428;-121.972;2023-05-10T01:34:16;5.40;;;1.33;;
50781;SDS011;36749;37.428;-121.972;2023-05-10T01:36:51;9.48;;;2.15;;
50781;SDS011;36749;37.428;-121.972;2023-05-10T01:39:27;7.35;;;1.70;;
50781;SDS011;36749;37.428;-121.972;2023-05-10T01:42:05;2.05;;;1.17;;
50781;SDS011;36749;37.428;-121.972;2023-05-10T01:44:46;2.97;;;1.17;;
50781;SDS011;36749;37.428;-121.972;2023-05-10T01:47:35;6.15;;;1.58;;
50781;SDS011;36749;37.428;-121.972;2023-05-10T01:50:04;5.03;;;1.40;;
50781;SDS011;36749;37.428;-121.972;2023-05-10T01:52:36;5.82;;;1.33;;
50781;SDS011;36749;37.428;-121.972;2023-05-10T01:55:09;5.47;;;1.38;;
50781;SDS011;36749;37.428;-121.972;2023-05-10T01:57:39;8.48;;;1.65;;
50781;SDS011;36749;37.428;-121.972;2023-05-10T02:00:08;10.20;;;1.60;;
50781;SDS011;36749;37.428;-121.972;2023-05-10T02:02:39;19.35;;;2.63;;
50781;SDS011;36749;37.428;-121.972;2023-05-10T02:05:07;2.60;;;1.10;;
50781;SDS011;36749;37.428;-121.972;2023-05-10T02:07:37;8.40;;;1.85;;
50781;SDS011;36749;37.428;-121.972;2023-05-10T02:10:05;9.55;;;1.60;;
50781;SDS011;36749;37.428;-121.972;2023-05-10T02:12:36;3.30;;;1.10;;
50781;SDS011;36749;37.428;-121.972;2023-05-10T02:15:05;6.85;;;1.70;;
50781;SDS011;36749;37.428;-121.972;2023-05-10T02:17:33;8.23;;;1.77;;
50781;SDS011;36749;37.428;-121.972;2023-05-10T02:20:02;7.95;;;1.50;;
50781;SDS011;36749;37.428;-121.972;2023-05-10T02:22:29;5.60;;;1.58;;
50781;SDS011;36749;37.428;-121.972;2023-05-10T02:24:55;31.83;;;4.45;;
50781;SDS011;36749;37.428;-121.972;2023-05-10T02:27:24;12.63;;;2.10;;
50781;SDS011;36749;37.428;-121.972;2023-05-10T02:29:51;6.70;;;1.58;;
50781;SDS011;36749;37.428;-121.972;2023-05-10T02:32:18;3.72;;;1.50;;
50781;SDS011;36749;37.428;-121.972;2023-05-10T02:34:44;4.13;;;1.15;;
50781;SDS011;36749;37.428;-121.972;2023-05-10T02:37:14;1.83;;;1.20;;
50781;SDS011;36749;37.428;-121.972;2023-05-10T02:39:41;4.05;;;1.20;;
50781;SDS011;36749;37.428;-121.972;2023-05-10T02:42:13;3.00;;;1.30;;
50781;SDS011;36749;37.428;-121.972;2023-05-10T02:44:42;3.22;;;1.42;;
50781;SDS011;36749;37.428;-121.972;2023-05-10T02:47:09;4.18;;;1.10;;
50781;SDS011;36749;37.428;-121.972;2023-05-10T02:49:35;3.50;;;1.30;;
50781;SDS011;36749;37.428;-121.972;2023-05-10T02:52:03;8.00;;;1.20;;
50781;SDS011;36749;37.428;-121.972;2023-05-10T02:54:33;4.13;;;1.30;;
50781;SDS011;36749;37.428;-121.972;2023-05-10T02:57:05;3.78;;;1.08;;
50781;SDS011;36749;37.428;-121.972;2023-05-10T02:59:32;13.48;;;1.70;;
50781;SDS011;36749;37.428;-121.972;2023-05-10T03:01:59;6.78;;;1.30;;
50781;SDS011;36749;37.428;-121.972;2023-05-10T03:04:25;3.08;;;1.13;;
50781;SDS011;36749;37.428;-121.972;2023-05-10T03:06:52;5.88;;;1.45;;
50781;SDS011;36749;37.428;-121.972;2023-05-10T03:09:18;1.60;;;0.98;;
50781;SDS011;36749;37.428;-121.972;2023-05-10T03:11:47;6.05;;;1.50;;
50781;SDS011;36749;37.428;-121.972;2023-05-10T03:14:42;1.50;;;0.90;;
50781;SDS011;36749;37.428;-121.972;2023-05-10T03:17:43;4.40;;;1.58;;
50781;SDS011;36749;37.428;-121.972;2023-05-10T03:20:24;1.63;;;1.00;;
50781;SDS011;36749;37.428;-121.972;2023-05-10T03:22:54;2.47;;;1.30;;
50781;SDS011;36749;37.428;-121.972;2023-05-10T03:25:21;5.43;;;1.42;;
50781;SDS011;36749;37.428;-121.972;2023-05-10T03:27:48;2.55;;;1.10;;
50781;SDS011;36749;37.428;-121.972;2023-05-10T03:30:18;3.53;;;1.30;;
50781;SDS011;36749;37.428;-121.972;2023-05-10T03:32:45;4.72;;;1.50;;
50781;SDS011;36749;37.428;-121.972;2023-05-10T03:35:12;2.78;;;1.20;;
50781;SDS011;36749;37.428;-121.972;2023-05-10T03:37:39;6.32;;;2.00;;
50781;SDS011;36749;37.428;-121.972;2023-05-10T03:40:05;2.00;;;1.40;;
50781;SDS011;36749;37.428;-121.972;2023-05-10T03:42:40;3.15;;;1.60;;
50781;SDS011;36749;37.428;-121.972;2023-05-10T03:45:06;5.50;;;1.67;;
50781;SDS011;36749;37.428;-121.972;2023-05-10T03:47:36;3.97;;;1.80;;
50781;SDS011;36749;37.428;-121.972;2023-05-10T03:50:02;7.00;;;1.52;;
50781;SDS011;36749;37.428;-121.972;2023-05-10T03:52:28;4.07;;;1.15;;
50781;SDS011;36749;37.428;-121.972;2023-05-10T03:54:54;4.20;;;1.40;;
50781;SDS011;36749;37.428;-121.972;2023-05-10T03:57:20;5.05;;;1.60;;
50781;SDS011;36749;37.428;-121.972;2023-05-10T03:59:47;3.33;;;1.20;;
50781;SDS011;36749;37.428;-121.972;2023-05-10T04:02:13;5.63;;;1.60;;
50781;SDS011;36749;37.428;-121.972;2023-05-10T04:04:39;4.43;;;1.60;;
50781;SDS011;36749;37.428;-121.972;2023-05-10T04:07:11;4.10;;;1.77;;
50781;SDS011;36749;37.428;-121.972;2023-05-10T04:09:37;4.80;;;1.65;;
50781;SDS011;36749;37.428;-121.972;2023-05-10T04:12:03;6.82;;;1.88;;
50781;SDS011;36749;37.428;-121.972;2023-05-10T04:14:30;4.97;;;1.63;;
50781;SDS011;36749;37.428;-121.972;2023-05-10T04:16:57;4.05;;;1.58;;
50781;SDS011;36749;37.428;-121.972;2023-05-10T04:19:23;3.78;;;1.30;;
50781;SDS011;36749;37.428;-121.972;2023-05-10T04:21:49;6.80;;;1.73;;
50781;SDS011;36749;37.428;-121.972;2023-05-10T04:24:15;2.03;;;1.27;;
50781;SDS011;36749;37.428;-121.972;2023-05-10T04:26:41;2.83;;;1.48;;
50781;SDS011;36749;37.428;-121.972;2023-05-10T04:29:07;3.63;;;1.38;;
50781;SDS011;36749;37.428;-121.972;2023-05-10T04:31:34;5.00;;;1.73;;
50781;SDS011;36749;37.428;-121.972;2023-05-10T04:34:01;5.75;;;1.70;;
50781;SDS011;36749;37.428;-121.972;2023-05-10T04:36:27;2.53;;;1.38;;
50781;SDS011;36749;37.428;-121.972;2023-05-10T04:38:54;8.63;;;2.30;;
50781;SDS011;36749;37.428;-121.972;2023-05-10T04:41:20;3.30;;;1.42;;
50781;SDS011;36749;37.428;-121.972;2023-05-10T04:43:46;4.35;;;1.20;;
50781;SDS011;36749;37.428;-121.972;2023-05-10T04:46:14;5.90;;;1.40;;
50781;SDS011;36749;37.428;-121.972;2023-05-10T04:48:40;3.30;;;1.50;;
50781;SDS011;36749;37.428;-121.972;2023-05-10T04:51:07;4.13;;;1.85;;
50781;SDS011;36749;37.428;-121.972;2023-05-10T04:53:33;6.60;;;1.60;;
50781;SDS011;36749;37.428;-121.972;2023-05-10T04:55:59;6.72;;;1.85;;
50781;SDS011;36749;37.428;-121.972;2023-05-10T04:58:25;5.85;;;1.73;;
50781;SDS011;36749;37.428;-121.972;2023-05-10T05:00:51;2.38;;;1.35;;
50781;SDS011;36749;37.428;-121.972;2023-05-10T05:03:17;4.65;;;1.67;;
50781;SDS011;36749;37.428;-121.972;2023-05-10T05:05:44;5.20;;;1.60;;
50781;SDS011;36749;37.428;-121.972;2023-05-10T05:08:10;5.65;;;1.67;;
50781;SDS011;36749;37.428;-121.972;2023-05-10T05:10:36;3.83;;;1.27;;
50781;SDS011;36749;37.428;-121.972;2023-05-10T05:13:02;6.80;;;1.33;;
50781;SDS011;36749;37.428;-121.972;2023-05-10T05:15:28;9.93;;;1.77;;
50781;SDS011;36749;37.428;-121.972;2023-05-10T05:17:55;3.60;;;1.80;;
50781;SDS011;36749;37.428;-121.972;2023-05-10T05:20:21;5.72;;;1.30;;
50781;SDS011;36749;37.428;-121.972;2023-05-10T05:22:48;3.60;;;1.38;;
50781;SDS011;36749;37.428;-121.972;2023-05-10T05:25:14;1.88;;;1.40;;
50781;SDS011;36749;37.428;-121.972;2023-05-10T05:27:40;2.60;;;1.30;;
50781;SDS011;36749;37.428;-121.972;2023-05-10T05:30:07;3.40;;;1.35;;
50781;SDS011;36749;37.428;-121.972;2023-05-10T05:32:33;4.72;;;1.25;;
50781;SDS011;36749;37.428;-121.972;2023-05-10T05:34:59;5.68;;;1.80;;
50781;SDS011;36749;37.428;-121.972;2023-05-10T05:37:26;3.45;;;1.30;;
50781;SDS011;36749;37.428;-121.972;2023-05-10T05:39:52;4.68;;;1.50;;
50781;SDS011;36749;37.428;-121.972;2023-05-10T05:42:19;4.10;;;1.50;;
50781;SDS011;36749;37.428;-121.972;2023-05-10T05:44:45;5.10;;;1.92;;
50781;SDS011;36749;37.428;-121.972;2023-05-10T05:47:12;5.53;;;2.10;;
50781;SDS011;36749;37.428;-121.972;2023-05-10T05:49:38;4.10;;;1.70;;
50781;SDS011;36749;37.428;-121.972;2023-05-10T05:52:04;4.82;;;1.70;;
50781;SDS011;36749;37.428;-121.972;2023-05-10T05:54:31;7.40;;;1.83;;
50781;SDS011;36749;37.428;-121.972;2023-05-10T05:56:58;7.45;;;2.30;;
50781;SDS011;36749;37.428;-121.972;2023-05-10T05:59:24;2.50;;;1.58;;
50781;SDS011;36749;37.428;-121.972;2023-05-10T06:01:51;4.30;;;1.75;;
50781;SDS011;36749;37.428;-121.972;2023-05-10T06:04:17;4.75;;;1.80;;
50781;SDS011;36749;37.428;-121.972;2023-05-10T06:07:04;7.80;;;1.70;;
50781;SDS011;36749;37.428;-121.972;2023-05-10T06:09:31;7.13;;;1.92;;
50781;SDS011;36749;37.428;-121.972;2023-05-10T06:11:57;9.13;;;1.60;;
50781;SDS011;36749;37.428;-121.972;2023-05-10T06:14:23;7.25;;;1.80;;
50781;SDS011;36749;37.428;-121.972;2023-05-10T06:16:49;8.68;;;1.65;;
50781;SDS011;36749;37.428;-121.972;2023-05-10T06:19:15;3.55;;;1.23;;
50781;SDS011;36749;37.428;-121.972;2023-05-10T06:21:41;8.52;;;2.65;;
50781;SDS011;36749;37.428;-121.972;2023-05-10T06:24:07;8.30;;;1.95;;
50781;SDS011;36749;37.428;-121.972;2023-05-10T06:26:34;7.05;;;2.45;;
50781;SDS011;36749;37.428;-121.972;2023-05-10T06:29:00;2.97;;;1.25;;
50781;SDS011;36749;37.428;-121.972;2023-05-10T06:31:26;3.50;;;1.50;;
50781;SDS011;36749;37.428;-121.972;2023-05-10T06:33:52;5.97;;;1.70;;
50781;SDS011;36749;37.428;-121.972;2023-05-10T06:36:18;5.93;;;1.77;;
50781;SDS011;36749;37.428;-121.972;2023-05-10T06:38:45;4.18;;;1.80;;
50781;SDS011;36749;37.428;-121.972;2023-05-10T06:41:11;4.63;;;1.65;;
50781;SDS011;36749;37.428;-121.972;2023-05-10T06:43:37;3.63;;;1.25;;
50781;SDS011;36749;37.428;-121.972;2023-05-10T06:46:06;3.63;;;1.65;;
50781;SDS011;36749;37.428;-121.972;2023-05-10T06:48:32;3.05;;;1.23;;
50781;SDS011;36749;37.428;-121.972;2023-05-10T06:50:59;3.58;;;1.60;;
50781;SDS011;36749;37.428;-121.972;2023-05-10T06:53:25;3.90;;;1.90;;
50781;SDS011;36749;37.428;-121.972;2023-05-10T06:55:51;3.20;;;1.67;;
50781;SDS011;36749;37.428;-121.972;2023-05-10T06:58:17;4.75;;;1.65;;
50781;SDS011;36749;37.428;-121.972;2023-05-10T07:00:44;7.80;;;1.63;;
50781;SDS011;36749;37.428;-121.972;2023-05-10T07:03:10;3.65;;;1.45;;
50781;SDS011;36749;37.428;-121.972;2023-05-10T07:05:36;3.10;;;1.33;;
50781;SDS011;36749;37.428;-121.972;2023-05-10T07:08:02;4.43;;;1.83;;
50781;SDS011;36749;37.428;-121.972;2023-05-10T07:10:29;5.20;;;1.48;;
50781;SDS011;36749;37.428;-121.972;2023-05-10T07:12:55;4.45;;;1.60;;
50781;SDS011;36749;37.428;-121.972;2023-05-10T07:15:21;4.78;;;1.70;;
50781;SDS011;36749;37.428;-121.972;2023-05-10T07:17:47;3.08;;;1.58;;
50781;SDS011;36749;37.428;-121.972;2023-05-10T07:20:14;5.45;;;1.88;;
50781;SDS011;36749;37.428;-121.972;2023-05-10T07:22:40;2.33;;;1.40;;
50781;SDS011;36749;37.428;-121.972;2023-05-10T07:25:06;6.10;;;1.70;;
50781;SDS011;36749;37.428;-121.972;2023-05-10T07:27:32;4.53;;;1.60;;
50781;SDS011;36749;37.428;-121.972;2023-05-10T07:29:59;2.25;;;1.67;;
50781;SDS011;36749;37.428;-121.972;2023-05-10T07:32:25;4.30;;;1.77;;
50781;SDS011;36749;37.428;-121.972;2023-05-10T07:34:51;4.57;;;2.13;;
50781;SDS011;36749;37.428;-121.972;2023-05-10T07:37:17;1.25;;;1.15;;
50781;SDS011;36749;37.428;-121.972;2023-05-10T07:39:44;3.00;;;1.40;;
50781;SDS011;36749;37.428;-121.972;2023-05-10T07:42:10;4.55;;;1.70;;
50781;SDS011;36749;37.428;-121.972;2023-05-10T07:44:36;4.53;;;1.63;;
50781;SDS011;36749;37.428;-121.972;2023-05-10T07:47:02;2.45;;;1.40;;
50781;SDS011;36749;37.428;-121.972;2023-05-10T07:49:28;2.40;;;1.75;;
50781;SDS011;36749;37.428;-121.972;2023-05-10T07:51:54;2.63;;;1.50;;
50781;SDS011;36749;37.428;-121.972;2023-05-10T07:54:20;2.00;;;1.45;;
50781;SDS011;36749;37.428;-121.972;2023-05-10T07:56:47;4.82;;;2.20;;
50781;SDS011;36749;37.428;-121.972;2023-05-10T07:59:16;6.10;;;2.33;;
50781;SDS011;36749;37.428;-121.972;2023-05-10T08:01:43;2.88;;;1.90;;
50781;SDS011;36749;37.428;-121.972;2023-05-10T08:04:09;4.55;;;1.55;;
50781;SDS011;36749;37.428;-121.972;2023-05-10T08:06:35;3.10;;;1.58;;
50781;SDS011;36749;37.428;-121.972;2023-05-10T08:09:01;1.35;;;1.05;;
50781;SDS011;36749;37.428;-121.972;2023-05-10T08:11:28;2.65;;;1.50;;
50781;SDS011;36749;37.428;-121.972;2023-05-10T08:13:54;4.13;;;1.50;;
50781;SDS011;36749;37.428;-121.972;2023-05-10T08:16:20;4.60;;;1.65;;
50781;SDS011;36749;37.428;-121.972;2023-05-10T08:18:46;3.38;;;1.35;;
50781;SDS011;36749;37.428;-121.972;2023-05-10T08:21:14;1.88;;;1.45;;
50781;SDS011;36749;37.428;-121.972;2023-05-10T08:23:40;4.00;;;1.67;;
50781;SDS011;36749;37.428;-121.972;2023-05-10T08:26:08;4.07;;;1.58;;
50781;SDS011;36749;37.428;-121.972;2023-05-10T08:28:35;8.88;;;1.55;;
50781;SDS011;36749;37.428;-121.972;2023-05-10T08:31:21;4.20;;;1.33;;
50781;SDS011;36749;37.428;-121.972;2023-05-10T08:33:47;6.70;;;1.73;;
50781;SDS011;36749;37.428;-121.972;2023-05-10T08:36:13;8.15;;;1.75;;
50781;SDS011;36749;37.428;-121.972;2023-05-10T08:38:44;3.17;;;1.60;;
50781;SDS011;36749;37.428;-121.972;2023-05-10T08:41:10;5.93;;;2.08;;
50781;SDS011;36749;37.428;-121.972;2023-05-10T08:43:37;5.43;;;1.90;;
50781;SDS011;36749;37.428;-121.972;2023-05-10T08:46:03;5.80;;;2.00;;
50781;SDS011;36749;37.428;-121.972;2023-05-10T08:48:31;6.50;;;2.00;;
50781;SDS011;36749;37.428;-121.972;2023-05-10T08:50:59;4.53;;;1.90;;
50781;SDS011;36749;37.428;-121.972;2023-05-10T08:53:27;6.57;;;1.60;;
50781;SDS011;36749;37.428;-121.972;2023-05-10T08:55:54;14.90;;;2.60;;
50781;SDS011;36749;37.428;-121.972;2023-05-10T08:58:21;7.25;;;1.80;;
50781;SDS011;36749;37.428;-121.972;2023-05-10T09:00:48;8.00;;;2.08;;
50781;SDS011;36749;37.428;-121.972;2023-05-10T09:03:16;6.70;;;1.70;;
50781;SDS011;36749;37.428;-121.972;2023-05-10T09:05:43;6.88;;;2.10;;
50781;SDS011;36749;37.428;-121.972;2023-05-10T09:08:10;3.15;;;1.50;;
50781;SDS011;36749;37.428;-121.972;2023-05-10T09:10:38;4.00;;;1.65;;
50781;SDS011;36749;37.428;-121.972;2023-05-10T09:13:04;5.03;;;1.83;;
50781;SDS011;36749;37.428;-121.972;2023-05-10T09:15:31;7.00;;;1.88;;
50781;SDS011;36749;37.428;-121.972;2023-05-10T09:17:57;5.68;;;2.42;;
50781;SDS011;36749;37.428;-121.972;2023-05-10T09:20:26;6.68;;;2.75;;
50781;SDS011;36749;37.428;-121.972;2023-05-10T09:22:52;5.90;;;1.52;;
50781;SDS011;36749;37.428;-121.972;2023-05-10T09:25:19;3.67;;;1.45;;
50781;SDS011;36749;37.428;-121.972;2023-05-10T09:27:46;3.15;;;1.70;;
50781;SDS011;36749;37.428;-121.972;2023-05-10T09:30:16;3.53;;;1.95;;
50781;SDS011;36749;37.428;-121.972;2023-05-10T09:33:03;6.60;;;1.95;;
50781;SDS011;36749;37.428;-121.972;2023-05-10T09:35:30;6.50;;;1.65;;
50781;SDS011;36749;37.428;-121.972;2023-05-10T09:37:59;5.15;;;1.73;;
50781;SDS011;36749;37.428;-121.972;2023-05-10T09:40:28;5.85;;;1.77;;
50781;SDS011;36749;37.428;-121.972;2023-05-10T09:45:28;4.85;;;1.67;;
50781;SDS011;36749;37.428;-121.972;2023-05-10T09:47:56;2.60;;;1.80;;
50781;SDS011;36749;37.428;-121.972;2023-05-10T09:50:24;6.10;;;1.90;;
50781;SDS011;36749;37.428;-121.972;2023-05-10T09:52:52;4.55;;;1.70;;
50781;SDS011;36749;37.428;-121.972;2023-05-10T09:55:26;1.50;;;1.40;;
50781;SDS011;36749;37.428;-121.972;2023-05-10T09:57:59;5.40;;;1.77;;
50781;SDS011;36749;37.428;-121.972;2023-05-10T10:00:26;3.65;;;1.42;;
50781;SDS011;36749;37.428;-121.972;2023-05-10T10:02:59;2.85;;;1.58;;
50781;SDS011;36749;37.428;-121.972;2023-05-10T10:05:29;2.92;;;1.40;;
50781;SDS011;36749;37.428;-121.972;2023-05-10T10:07:59;4.90;;;1.73;;
50781;SDS011;36749;37.428;-121.972;2023-05-10T10:10:26;4.43;;;1.90;;
50781;SDS011;36749;37.428;-121.972;2023-05-10T10:12:53;4.10;;;1.80;;
50781;SDS011;36749;37.428;-121.972;2023-05-10T10:15:21;5.55;;;2.17;;
50781;SDS011;36749;37.428;-121.972;2023-05-10T10:17:48;3.75;;;1.50;;
50781;SDS011;36749;37.428;-121.972;2023-05-10T10:20:16;4.07;;;1.65;;
50781;SDS011;36749;37.428;-121.972;2023-05-10T10:22:43;2.60;;;1.88;;
50781;SDS011;36749;37.428;-121.972;2023-05-10T10:25:13;4.15;;;1.90;;
50781;SDS011;36749;37.428;-121.972;2023-05-10T10:30:24;2.08;;;1.45;;
50781;SDS011;36749;37.428;-121.972;2023-05-10T10:35:21;3.83;;;1.50;;
50781;SDS011;36749;37.428;-121.972;2023-05-10T10:37:47;5.30;;;1.70;;
50781;SDS011;36749;37.428;-121.972;2023-05-10T10:40:32;3.60;;;1.98;;
50781;SDS011;36749;37.428;-121.972;2023-05-10T10:43:20;3.83;;;1.75;;
50781;SDS011;36749;37.428;-121.972;2023-05-10T10:48:41;1.70;;;1.58;;
50781;SDS011;36749;37.428;-121.972;2023-05-10T10:51:30;4.68;;;2.17;;
50781;SDS011;36749;37.428;-121.972;2023-05-10T10:53:56;3.25;;;1.88;;
50781;SDS011;36749;37.428;-121.972;2023-05-10T10:56:37;3.92;;;1.80;;
50781;SDS011;36749;37.428;-121.972;2023-05-10T10:59:03;3.10;;;1.92;;
50781;SDS011;36749;37.428;-121.972;2023-05-10T11:01:33;4.75;;;2.10;;
50781;SDS011;36749;37.428;-121.972;2023-05-10T11:06:30;4.30;;;2.30;;
50781;SDS011;36749;37.428;-121.972;2023-05-10T11:09:09;3.85;;;2.25;;
50781;SDS011;36749;37.428;-121.972;2023-05-10T11:11:48;5.32;;;3.08;;
50781;SDS011;36749;37.428;-121.972;2023-05-10T11:14:38;6.55;;;2.58;;
50781;SDS011;36749;37.428;-121.972;2023-05-10T11:20:08;4.32;;;2.13;;
50781;SDS011;36749;37.428;-121.972;2023-05-10T11:22:51;3.80;;;2.13;;
50781;SDS011;36749;37.428;-121.972;2023-05-10T11:25:18;3.17;;;1.70;;
50781;SDS011;36749;37.428;-121.972;2023-05-10T11:27:44;4.28;;;2.00;;
50781;SDS011;36749;37.428;-121.972;2023-05-10T11:30:12;5.75;;;2.42;;
50781;SDS011;36749;37.428;-121.972;2023-05-10T11:32:39;7.65;;;2.00;;
50781;SDS011;36749;37.428;-121.972;2023-05-10T11:35:09;3.00;;;1.90;;
50781;SDS011;36749;37.428;-121.972;2023-05-10T11:37:37;4.40;;;2.10;;
50781;SDS011;36749;37.428;-121.972;2023-05-10T11:40:07;2.20;;;1.95;;
50781;SDS011;36749;37.428;-121.972;2023-05-10T11:42:37;4.07;;;2.03;;
50781;SDS011;36749;37.428;-121.972;2023-05-10T11:45:04;3.17;;;2.15;;
50781;SDS011;36749;37.428;-121.972;2023-05-10T11:47:31;6.82;;;2.60;;
50781;SDS011;36749;37.428;-121.972;2023-05-10T11:49:57;7.20;;;2.33;;
50781;SDS011;36749;37.428;-121.972;2023-05-10T11:52:24;6.82;;;2.60;;
50781;SDS011;36749;37.428;-121.972;2023-05-10T11:54:53;6.20;;;2.50;;
50781;SDS011;36749;37.428;-121.972;2023-05-10T11:57:20;4.70;;;2.70;;
50781;SDS011;36749;37.428;-121.972;2023-05-10T11:59:54;6.65;;;2.33;;
50781;SDS011;36749;37.428;-121.972;2023-05-10T12:02:22;8.23;;;2.38;;
50781;SDS011;36749;37.428;-121.972;2023-05-10T12:04:48;9.55;;;2.90;;
50781;SDS011;36749;37.428;-121.972;2023-05-10T12:07:16;9.32;;;2.30;;
50781;SDS011;36749;37.428;-121.972;2023-05-10T12:10:02;8.20;;;2.70;;
50781;SDS011;36749;37.428;-121.972;2023-05-10T12:12:36;7.43;;;2.65;;
50781;SDS011;36749;37.428;-121.972;2023-05-10T12:15:04;6.00;;;2.35;;
50781;SDS011;36749;37.428;-121.972;2023-05-10T12:17:31;10.50;;;2.67;;
50781;SDS011;36749;37.428;-121.972;2023-05-10T12:22:49;5.80;;;2.45;;
50781;SDS011;36749;37.428;-121.972;2023-05-10T12:25:20;6.60;;;2.83;;
50781;SDS011;36749;37.428;-121.972;2023-05-10T12:27:51;6.38;;;2.65;;
50781;SDS011;36749;37.428;-121.972;2023-05-10T12:30:21;3.45;;;2.28;;
50781;SDS011;36749;37.428;-121.972;2023-05-10T12:32:48;6.18;;;2.95;;
50781;SDS011;36749;37.428;-121.972;2023-05-10T12:35:15;9.80;;;2.78;;
50781;SDS011;36749;37.428;-121.972;2023-05-10T12:37:42;6.97;;;2.70;;
50781;SDS011;36749;37.428;-121.972;2023-05-10T12:40:09;4.18;;;2.13;;
50781;SDS011;36749;37.428;-121.972;2023-05-10T12:42:37;6.60;;;2.50;;
50781;SDS011;36749;37.428;-121.972;2023-05-10T12:45:05;6.88;;;2.58;;
50781;SDS011;36749;37.428;-121.972;2023-05-10T12:47:32;9.75;;;3.10;;
50781;SDS011;36749;37.428;-121.972;2023-05-10T12:49:59;6.95;;;2.92;;
50781;SDS011;36749;37.428;-121.972;2023-05-10T12:52:26;7.25;;;2.63;;
50781;SDS011;36749;37.428;-121.972;2023-05-10T12:54:53;4.15;;;2.33;;
50781;SDS011;36749;37.428;-121.972;2023-05-10T12:57:22;7.90;;;2.70;;
50781;SDS011;36749;37.428;-121.972;2023-05-10T12:59:48;4.65;;;2.15;;
50781;SDS011;36749;37.428;-121.972;2023-05-10T13:02:15;5.35;;;2.60;;
50781;SDS011;36749;37.428;-121.972;2023-05-10T13:04:43;4.90;;;2.00;;
50781;SDS011;36749;37.428;-121.972;2023-05-10T13:07:11;7.45;;;2.63;;
50781;SDS011;36749;37.428;-121.972;2023-05-10T13:09:37;4.78;;;2.38;;
50781;SDS011;36749;37.428;-121.972;2023-05-10T13:12:04;7.30;;;2.35;;
50781;SDS011;36749;37.428;-121.972;2023-05-10T13:14:30;5.43;;;2.17;;
50781;SDS011;36749;37.428;-121.972;2023-05-10T13:16:57;2.95;;;2.20;;
50781;SDS011;36749;37.428;-121.972;2023-05-10T13:19:23;3.60;;;2.10;;
50781;SDS011;36749;37.428;-121.972;2023-05-10T13:21:49;5.68;;;1.90;;
50781;SDS011;36749;37.428;-121.972;2023-05-10T13:24:15;2.92;;;1.90;;
50781;SDS011;36749;37.428;-121.972;2023-05-10T13:26:42;4.90;;;2.13;;
50781;SDS011;36749;37.428;-121.972;2023-05-10T13:29:08;5.53;;;2.03;;
50781;SDS011;36749;37.428;-121.972;2023-05-10T13:31:35;5.75;;;2.00;;
50781;SDS011;36749;37.428;-121.972;2023-05-10T13:34:01;4.95;;;2.22;;
50781;SDS011;36749;37.428;-121.972;2023-05-10T13:36:28;6.22;;;2.25;;
50781;SDS011;36749;37.428;-121.972;2023-05-10T13:38:54;6.05;;;2.13;;
50781;SDS011;36749;37.428;-121.972;2023-05-10T13:41:20;6.55;;;2.20;;
50781;SDS011;36749;37.428;-121.972;2023-05-10T13:43:46;7.15;;;2.40;;
50781;SDS011;36749;37.428;-121.972;2023-05-10T13:46:14;9.77;;;3.28;;
50781;SDS011;36749;37.428;-121.972;2023-05-10T13:48:40;13.48;;;5.80;;
50781;SDS011;36749;37.428;-121.972;2023-05-10T13:51:06;14.45;;;6.00;;
50781;SDS011;36749;37.428;-121.972;2023-05-10T13:53:32;11.45;;;4.70;;
50781;SDS011;36749;37.428;-121.972;2023-05-10T13:55:58;12.70;;;4.15;;
50781;SDS011;36749;37.428;-121.972;2023-05-10T13:58:25;9.43;;;3.40;;
50781;SDS011;36749;37.428;-121.972;2023-05-10T14:00:51;12.30;;;2.53;;
50781;SDS011;36749;37.428;-121.972;2023-05-10T14:03:17;10.63;;;2.72;;
50781;SDS011;36749;37.428;-121.972;2023-05-10T14:05:44;9.85;;;2.75;;
50781;SDS011;36749;37.428;-121.972;2023-05-10T14:08:10;7.43;;;2.58;;
50781;SDS011;36749;37.428;-121.972;2023-05-10T14:10:38;6.03;;;2.47;;
50781;SDS011;36749;37.428;-121.972;2023-05-10T14:13:04;6.60;;;2.75;;
50781;SDS011;36749;37.428;-121.972;2023-05-10T14:15:31;8.45;;;2.83;;
50781;SDS011;36749;37.428;-121.972;2023-05-10T14:17:57;4.90;;;2.22;;
50781;SDS011;36749;37.428;-121.972;2023-05-10T14:20:23;5.65;;;2.50;;
50781;SDS011;36749;37.428;-121.972;2023-05-10T14:22:50;9.63;;;2.70;;
50781;SDS011;36749;37.428;-121.972;2023-05-10T14:25:16;8.32;;;2.83;;
50781;SDS011;36749;37.428;-121.972;2023-05-10T14:27:42;5.95;;;2.55;;
50781;SDS011;36749;37.428;-121.972;2023-05-10T14:30:08;8.73;;;2.67;;
50781;SDS011;36749;37.428;-121.972;2023-05-10T14:32:35;9.77;;;2.55;;
50781;SDS011;36749;37.428;-121.972;2023-05-10T14:35:02;5.95;;;2.20;;
50781;SDS011;36749;37.428;-121.972;2023-05-10T14:37:28;7.45;;;2.40;;
50781;SDS011;36749;37.428;-121.972;2023-05-10T14:39:54;6.40;;;2.38;;
50781;SDS011;36749;37.428;-121.972;2023-05-10T14:42:21;8.45;;;2.45;;